createdAt,value
2018-12-24T00:02:38.066Z,97852.74
2018-12-24T00:06:53.205Z,97859.48
2018-12-24T00:10:59.041Z,97854.02
2018-12-24T00:15:06.647Z,97841.54
2018-12-24T00:19:12.637Z,97841.60
2018-12-24T00:23:18.582Z,97846.94
2018-12-24T00:27:24.560Z,97849.23
2018-12-24T00:31:30.459Z,97848.27
2018-12-24T00:37:03.218Z,97847.20
2018-12-24T00:41:20.773Z,97847.30
2018-12-24T00:45:57.693Z,97864.29
2018-12-24T00:50:15.970Z,97860.94
2018-12-24T00:55:00.323Z,97878.74
2018-12-24T00:59:18.058Z,97853.23
2018-12-24T01:04:02.529Z,97861.11
2018-12-24T01:08:18.429Z,97874.17
2018-12-24T01:17:11.547Z,97873.83
2018-12-24T01:21:27.576Z,97868.38
2018-12-24T01:25:52.615Z,97853.50
2018-12-24T01:30:11.276Z,97847.44
2018-12-24T01:34:55.630Z,97853.81
2018-12-24T01:39:13.305Z,97861.80
2018-12-24T01:43:38.384Z,97827.75
2018-12-24T01:47:56.652Z,97824.33
2018-12-24T01:52:14.372Z,97828.59
2018-12-24T02:01:15.906Z,97816.82
2018-12-24T02:05:33.499Z,97828.94
2018-12-24T02:09:58.544Z,97855.97
2018-12-24T02:14:16.452Z,97873.00
2018-12-24T02:18:41.513Z,97900.42
2018-12-24T02:22:59.594Z,97912.16
2018-12-24T02:27:24.751Z,97975.30
2018-12-24T02:31:48.561Z,98030.01
2018-12-24T02:36:13.656Z,98046.66
2018-12-24T02:40:50.438Z,98062.42
2018-12-24T02:45:08.664Z,98085.27
2018-12-24T02:49:48.645Z,98092.95
2018-12-24T02:54:06.494Z,98091.49
2018-12-24T02:58:50.880Z,98092.28
2018-12-24T03:03:08.948Z,98099.59
2018-12-24T03:07:34.000Z,98110.05
2018-12-24T03:11:52.322Z,98113.88
2018-12-24T03:16:08.262Z,98130.79
2018-12-24T03:25:09.739Z,98146.45
2018-12-24T03:29:49.291Z,98146.53
2018-12-24T03:34:14.335Z,98141.08
2018-12-24T03:38:51.579Z,98158.42
2018-12-24T03:43:16.663Z,98143.45
2018-12-24T03:47:53.598Z,98165.34
2018-12-24T03:52:18.668Z,98185.70
2018-12-24T03:56:55.917Z,98217.47
2018-12-24T04:05:57.192Z,98266.73
2018-12-24T04:10:15.038Z,98270.80
2018-12-24T04:14:40.081Z,98288.90
2018-12-24T04:18:58.174Z,98284.70
2018-12-24T04:23:23.214Z,98315.58
2018-12-24T04:28:00.591Z,98305.45
2018-12-24T04:33:04.195Z,98317.68
2018-12-24T04:37:22.438Z,98344.39
2018-12-24T04:41:59.679Z,98358.89
2018-12-24T04:46:17.197Z,98368.12
2018-12-24T04:50:34.708Z,98400.28
2018-12-24T04:54:59.753Z,98409.80
2018-12-24T04:59:17.509Z,98425.58
2018-12-24T05:04:01.879Z,98442.55
2018-12-24T05:08:19.847Z,98447.11
2018-12-24T05:12:56.608Z,98464.97
2018-12-24T05:17:02.311Z,98498.48
2018-12-24T05:21:08.018Z,98537.36
2018-12-24T05:25:13.730Z,98555.08
2018-12-24T05:29:19.391Z,98565.03
2018-12-24T05:33:26.059Z,98582.48
2018-12-24T05:37:31.759Z,98583.65
2018-12-24T05:41:37.463Z,98622.30
2018-12-24T05:45:43.160Z,98626.28
2018-12-24T05:49:51.799Z,98621.75
2018-12-24T05:53:57.600Z,98648.11
2018-12-24T05:58:03.347Z,98640.25
2018-12-24T06:02:09.055Z,98656.55
2018-12-24T06:06:14.760Z,98665.98
2018-12-24T06:10:20.447Z,98668.14
2018-12-24T06:14:26.141Z,98701.56
2018-12-24T06:18:46.762Z,98713.46
2018-12-24T06:22:52.468Z,98718.68
2018-12-24T06:26:58.190Z,98739.96
2018-12-24T06:31:03.950Z,98762.69
2018-12-24T06:35:09.661Z,98776.70
2018-12-24T06:39:15.527Z,98792.77
2018-12-24T06:43:21.229Z,98809.14
2018-12-24T07:08:51.116Z,98888.49
2018-12-24T07:18:52.355Z,98922.73
2018-12-24T07:22:58.051Z,98945.59
2018-12-24T07:27:03.763Z,98967.95
2018-12-24T07:31:09.458Z,98980.98
2018-12-24T07:35:15.184Z,98991.06
2018-12-24T07:39:51.013Z,98999.78
2018-12-24T07:43:56.712Z,99011.06
2018-12-24T07:48:02.416Z,99014.60
2018-12-24T07:52:08.125Z,99027.20
2018-12-24T07:56:13.827Z,99012.09
2018-12-24T08:00:19.516Z,99024.67
2018-12-24T08:04:25.215Z,99024.66
2018-12-24T08:08:30.917Z,99031.44
2018-12-24T08:12:51.787Z,99044.24
2018-12-24T08:16:57.498Z,99047.97
2018-12-24T08:21:03.225Z,99054.16
2018-12-24T08:25:08.931Z,99056.67
2018-12-24T08:33:53.008Z,99065.59
2018-12-24T08:37:58.807Z,99065.81
2018-12-24T08:42:49.568Z,99076.89
2018-12-24T08:46:55.287Z,99082.69
2018-12-24T08:51:49.087Z,99088.52
2018-12-24T08:55:54.821Z,99099.75
2018-12-24T09:00:48.703Z,99096.46
2018-12-24T09:04:54.414Z,99088.13
2018-12-24T09:09:51.277Z,99096.46
2018-12-24T09:13:56.975Z,99117.60
2018-12-24T09:18:02.668Z,99127.77
2018-12-24T09:22:08.374Z,99130.48
2018-12-24T09:26:14.087Z,99140.39
2018-12-24T09:30:50.007Z,99151.65
2018-12-24T09:34:55.674Z,99159.00
2018-12-24T09:39:49.181Z,99169.04
2018-12-24T09:43:54.891Z,99174.90
2018-12-24T09:48:00.602Z,99170.61
2018-12-24T09:52:06.309Z,99178.03
2018-12-24T09:56:12.563Z,99182.27
2018-12-24T10:00:51.423Z,99179.97
2018-12-24T10:04:57.130Z,99191.05
2018-12-24T10:09:51.007Z,99209.85
2018-12-24T10:13:56.717Z,99207.92
2018-12-24T10:18:02.419Z,99220.34
2018-12-24T10:22:08.110Z,99223.82
2018-12-24T10:26:13.811Z,99223.84
2018-12-24T10:30:49.601Z,99224.00
2018-12-24T10:34:55.302Z,99214.29
2018-12-24T10:43:50.848Z,99221.42
2018-12-24T10:47:56.538Z,99222.95
2018-12-24T10:52:02.236Z,99228.00
2018-12-24T10:56:07.939Z,99231.14
2018-12-24T11:00:13.661Z,99229.98
2018-12-24T11:38:51.214Z,99262.66
2018-12-24T12:05:51.351Z,99284.39
2018-12-24T12:15:52.694Z,99289.83
2018-12-24T12:20:52.659Z,99295.65
2018-12-24T12:24:56.651Z,99310.80
2018-12-24T12:29:50.525Z,99326.55
2018-12-24T12:33:56.201Z,99331.61
2018-12-24T12:38:49.874Z,99334.52
2018-12-24T12:42:55.585Z,99334.50
2018-12-24T12:47:49.020Z,99342.86
2018-12-24T12:51:54.714Z,99357.02
2018-12-24T13:00:53.388Z,99351.55
2018-12-24T13:04:59.071Z,99353.72
2018-12-24T13:09:49.488Z,99362.45
2018-12-24T13:13:55.260Z,99365.58
2018-12-24T13:18:00.959Z,99368.84
2018-12-24T13:22:06.655Z,99377.59
2018-12-24T13:26:12.353Z,99381.08
2018-12-24T13:30:18.069Z,99387.47
2018-12-24T13:34:23.774Z,99397.38
2018-12-24T13:38:29.475Z,99398.19
2018-12-24T13:42:35.168Z,99403.23
2018-12-24T13:46:40.856Z,99407.26
2018-12-24T13:50:46.547Z,99426.41
2018-12-24T13:54:52.246Z,99414.73
2018-12-24T13:58:57.961Z,99421.25
2018-12-24T14:03:03.670Z,99434.39
2018-12-24T14:07:47.834Z,99438.66
2018-12-24T14:11:53.525Z,99433.98
2018-12-24T14:15:59.225Z,99428.72
2018-12-24T14:20:06.148Z,99433.39
2018-12-24T14:24:50.685Z,99444.93
2018-12-24T14:28:56.385Z,99454.11
2018-12-24T14:33:02.111Z,99462.00
2018-12-24T14:37:07.800Z,99461.02
2018-12-24T14:45:51.882Z,99470.83
2018-12-24T14:49:57.568Z,99471.08
2018-12-24T14:54:03.277Z,99470.80
2018-12-24T14:58:08.956Z,99482.63
2018-12-24T15:02:14.722Z,99481.19
2018-12-24T15:06:20.410Z,99484.05
2018-12-24T15:10:26.111Z,99483.48
2018-12-24T15:14:31.981Z,99487.46
2018-12-24T15:24:52.542Z,99496.94
2018-12-24T15:29:49.412Z,99500.94
2018-12-24T15:33:55.152Z,99506.54
2018-12-24T15:38:48.943Z,99514.34
2018-12-24T15:42:54.707Z,99528.19
2018-12-24T15:51:50.426Z,99540.83
2018-12-24T15:56:46.723Z,99534.05
2018-12-24T16:00:52.418Z,99540.48
2018-12-24T16:05:48.983Z,99561.91
2018-12-24T16:09:54.667Z,99574.34
2018-12-24T16:14:48.628Z,99579.13
2018-12-24T16:18:54.291Z,99581.52
2018-12-24T16:23:00.015Z,99581.63
2018-12-24T16:27:50.409Z,99574.23
2018-12-24T16:31:56.118Z,99585.50
2018-12-24T16:36:01.829Z,99588.73
2018-12-24T16:40:07.524Z,99579.61
2018-12-24T16:44:49.383Z,99590.79
2018-12-24T16:48:55.078Z,99595.59
2018-12-24T16:53:00.764Z,99594.50
2018-12-24T16:57:06.454Z,99612.39
2018-12-24T17:01:12.143Z,99608.91
2018-12-24T17:05:17.847Z,99616.62
2018-12-24T17:09:23.921Z,99613.58
2018-12-24T17:13:49.904Z,99623.20
2018-12-24T17:17:55.627Z,99630.92
2018-12-24T17:22:01.393Z,99637.55
2018-12-24T17:26:07.063Z,99637.56
2018-12-24T17:30:13.768Z,99645.76
2018-12-24T17:34:49.224Z,99651.97
2018-12-24T17:38:55.020Z,99660.84
2018-12-24T17:43:00.718Z,99659.94
2018-12-24T17:47:06.405Z,99665.95
2018-12-24T17:51:12.110Z,99668.82
2018-12-24T17:55:17.857Z,99673.81
2018-12-24T17:59:23.569Z,99667.16
2018-12-24T18:03:29.236Z,99671.27
2018-12-24T18:07:34.948Z,99668.36
2018-12-24T18:11:40.652Z,99676.20
2018-12-24T18:15:46.343Z,99674.75
2018-12-24T18:19:52.037Z,99680.05
2018-12-24T18:23:57.743Z,99669.16
2018-12-24T18:28:03.420Z,99678.08
2018-12-24T18:32:09.105Z,99683.31
2018-12-24T18:36:14.809Z,99687.67
2018-12-24T18:40:20.504Z,99686.64
2018-12-24T18:44:26.175Z,99692.20
2018-12-24T18:48:31.861Z,99696.28
2018-12-24T18:52:37.687Z,99700.53
2018-12-24T18:56:43.378Z,99707.24
2018-12-24T19:00:49.081Z,99709.30
2018-12-24T19:04:55.559Z,99710.66
2018-12-24T19:09:01.251Z,99712.37
2018-12-24T19:13:08.795Z,99710.66
2018-12-24T19:17:14.485Z,99705.55
2018-12-24T19:21:20.149Z,99704.27
2018-12-24T19:25:25.857Z,99712.98
2018-12-24T19:29:31.546Z,99712.48
2018-12-24T19:50:51.343Z,99720.77
2018-12-24T19:55:50.618Z,99750.73
2018-12-24T19:59:56.300Z,99766.92
2018-12-24T20:04:02.022Z,99767.48
2018-12-24T20:08:49.480Z,99778.58
2018-12-24T20:12:56.236Z,99788.37
2018-12-24T20:17:02.025Z,99791.39
2018-12-24T20:21:07.714Z,99792.01
2018-12-24T20:25:13.397Z,99790.84
2018-12-24T20:29:52.009Z,99792.98
2018-12-24T20:33:57.688Z,99803.12
2018-12-24T20:38:03.406Z,99816.17
2018-12-24T20:42:09.090Z,99827.55
2018-12-24T20:46:14.777Z,99850.10
2018-12-24T20:50:50.321Z,99866.83
2018-12-24T20:54:55.988Z,99874.11
2018-12-24T20:59:01.744Z,99867.45
2018-12-24T21:03:07.438Z,99880.27
2018-12-24T21:07:13.138Z,99869.06
2018-12-24T21:11:51.977Z,99869.44
2018-12-24T21:15:57.669Z,99876.81
2018-12-24T21:24:50.725Z,99863.61
2018-12-24T21:28:56.410Z,99855.56
2018-12-24T21:33:02.116Z,99855.44
2018-12-24T21:37:07.812Z,99847.31
2018-12-24T21:41:49.236Z,99842.13
2018-12-24T21:45:54.996Z,99836.31
2018-12-24T21:50:00.695Z,99838.16
2018-12-24T21:54:06.377Z,99836.20
2018-12-24T21:58:12.059Z,99838.73
2018-12-24T22:02:50.509Z,99838.73
2018-12-24T22:06:56.211Z,99844.53
2018-12-24T22:11:01.971Z,99846.45
2018-12-24T22:15:07.657Z,99853.86
2018-12-24T22:19:13.344Z,99857.39
2018-12-24T22:23:19.076Z,99856.66
2018-12-24T22:27:24.761Z,99863.72
2018-12-24T22:31:30.447Z,99861.59
2018-12-24T22:35:51.438Z,99855.59
2018-12-24T22:39:57.154Z,99857.64
2018-12-24T22:44:02.882Z,99862.83
2018-12-24T22:48:08.556Z,99864.95
2018-12-24T22:52:14.265Z,99866.08
2018-12-24T22:56:19.960Z,99871.36
2018-12-24T23:00:27.337Z,99875.78
2018-12-24T23:04:51.002Z,99877.02
2018-12-24T23:08:57.190Z,99884.63
2018-12-24T23:13:02.832Z,99882.34
2018-12-24T23:17:08.518Z,99887.75
2018-12-24T23:21:14.232Z,99887.91
2018-12-24T23:25:19.994Z,99897.58
2018-12-24T23:29:49.781Z,99911.45
2018-12-24T23:33:55.519Z,99905.88
2018-12-24T23:38:01.198Z,99898.72
2018-12-24T23:42:06.882Z,99904.27
2018-12-24T23:46:12.654Z,99907.27
2018-12-24T23:51:48.431Z,99900.44
